Time;durP1;ratioP1;P1;durP2;ratioP2;P2;SDS_P1;SDS_P2;PMS_P1;PMS_P2;Temp;Humidity;BMP_temperature;BMP_pressure;BME280_temperature;BME280_humidity;BME280_pressure;Samples;Min_cycle;Max_cycle;Signal;HPM_P1;HPM_P2
2021/05/09 00:00:54;;;;;;;2.45;1.50;;;;;;;14.07;50.76;100458.69;4899318;28;127188;-62
2021/05/09 00:03:21;;;;;;;2.17;1.35;;;;;;;14.05;50.47;100453.59;4900878;28;124400;-62
2021/05/09 00:05:48;;;;;;;2.30;1.50;;;;;;;14.05;50.56;100448.16;4900613;28;99224;-69
2021/05/09 00:08:14;;;;;;;2.53;1.75;;;;;;;14.06;50.30;100451.69;4901746;28;98847;-62
2021/05/09 00:10:41;;;;;;;1.75;1.45;;;;;;;14.04;50.60;100451.19;4901654;28;97933;-62
2021/05/09 00:13:07;;;;;;;2.47;1.50;;;;;;;14.05;50.70;100448.16;4915299;28;111114;-62
2021/05/09 00:15:33;;;;;;;1.73;1.48;;;;;;;14.05;51.06;100450.06;4880040;28;98705;-69
2021/05/09 00:17:59;;;;;;;2.63;1.25;;;;;;;14.04;50.80;100438.44;4881975;28;105499;-63
2021/05/09 00:20:25;;;;;;;2.10;1.48;;;;;;;14.05;50.37;100450.88;4880793;28;126634;-68
2021/05/09 00:22:52;;;;;;;1.75;1.48;;;;;;;14.06;49.86;100435.41;4890388;28;97870;-62
2021/05/09 00:25:18;;;;;;;2.40;1.63;;;;;;;14.05;49.77;100434.63;4898322;28;115189;-69
2021/05/09 00:27:44;;;;;;;2.08;1.40;;;;;;;14.06;49.67;100433.50;4901711;28;98069;-62
2021/05/09 00:30:11;;;;;;;2.20;1.40;;;;;;;14.03;50.11;100436.81;4900692;28;98147;-62
2021/05/09 00:32:38;;;;;;;3.25;1.60;;;;;;;14.05;49.90;100431.91;4900426;28;114414;-62
2021/05/09 00:35:05;;;;;;;2.30;1.50;;;;;;;14.02;50.25;100423.53;4901180;28;98512;-69
2021/05/09 00:37:31;;;;;;;1.90;1.50;;;;;;;14.04;50.09;100424.88;4900652;28;99291;-62
2021/05/09 00:39:57;;;;;;;1.88;1.45;;;;;;;14.04;50.14;100426.78;4900487;28;108024;-69
2021/05/09 00:42:23;;;;;;;1.50;1.20;;;;;;;14.00;49.97;100424.66;4900910;28;97676;-70
2021/05/09 00:44:50;;;;;;;1.80;1.23;;;;;;;14.03;49.81;100419.72;4898240;28;128074;-62
2021/05/09 00:47:16;;;;;;;2.85;1.30;;;;;;;14.03;50.05;100427.88;4900994;28;99210;-62
2021/05/09 00:49:42;;;;;;;1.83;1.40;;;;;;;13.96;50.32;100420.91;4900282;28;111472;-69
2021/05/09 00:52:12;;;;;;;1.70;1.30;;;;;;;13.98;50.06;100418.69;4900717;28;119801;-70
2021/05/09 00:54:55;;;;;;;1.88;1.30;;;;;;;13.95;50.29;100419.31;4901706;28;98472;-69
2021/05/09 00:57:22;;;;;;;2.60;1.35;;;;;;;13.96;50.68;100410.06;4880742;28;113573;-69
2021/05/09 00:59:51;;;;;;;3.15;1.33;;;;;;;13.96;50.44;100410.06;4879391;28;99508;-62
2021/05/09 01:02:18;;;;;;;2.95;1.30;;;;;;;13.94;50.68;100414.16;4879803;28;98077;-62
2021/05/09 01:04:47;;;;;;;2.40;1.23;;;;;;;13.93;50.39;100416.06;4881951;28;98356;-62
2021/05/09 01:07:16;;;;;;;1.80;1.13;;;;;;;13.97;50.45;100414.38;4896242;28;98711;-70
2021/05/09 01:09:42;;;;;;;1.88;1.42;;;;;;;13.96;50.35;100410.06;4864032;28;101152;-62
2021/05/09 01:12:12;;;;;;;1.90;1.20;;;;;;;13.95;50.78;100413.06;4895309;28;122972;-70
2021/05/09 01:14:38;;;;;;;2.85;1.33;;;;;;;13.98;50.45;100418.69;4879256;28;99177;-62
2021/05/09 01:17:05;;;;;;;1.98;1.13;;;;;;;13.94;50.58;100409.53;4889858;28;108615;-62
2021/05/09 01:19:32;;;;;;;2.53;1.25;;;;;;;13.99;50.66;100417.63;4900912;28;98523;-62
2021/05/09 01:21:58;;;;;;;1.77;1.23;;;;;;;13.99;50.75;100414.13;4900845;28;97707;-63
2021/05/09 01:24:24;;;;;;;2.15;1.42;;;;;;;13.97;50.99;100417.09;4900981;28;98273;-62
2021/05/09 01:26:50;;;;;;;2.55;1.40;;;;;;;13.98;50.99;100420.59;4898660;28;126912;-69
2021/05/09 01:29:16;;;;;;;2.47;1.20;;;;;;;13.98;51.36;100405.16;4901939;28;127753;-70
2021/05/09 01:31:46;;;;;;;1.77;1.23;;;;;;;13.98;51.50;100402.44;4902383;28;97866;-62
2021/05/09 01:34:12;;;;;;;1.95;1.10;;;;;;;13.98;51.30;100407.06;4903232;28;107288;-70
2021/05/09 01:36:38;;;;;;;2.22;1.20;;;;;;;13.99;51.35;100398.66;4903131;28;112960;-70
2021/05/09 01:39:05;;;;;;;2.05;1.33;;;;;;;13.98;51.17;100398.94;4901883;28;98241;-62
2021/05/09 01:41:31;;;;;;;2.13;1.40;;;;;;;13.97;51.20;100398.13;4902092;28;97893;-62
2021/05/09 01:43:57;;;;;;;1.95;1.10;;;;;;;13.96;51.15;100385.69;4903376;28;112782;-62
2021/05/09 01:46:23;;;;;;;2.03;1.40;;;;;;;13.96;50.84;100388.41;4902340;28;127935;-62
2021/05/09 01:48:49;;;;;;;2.08;1.00;;;;;;;13.97;51.21;100387.28;4902629;28;127455;-62
2021/05/09 01:51:15;;;;;;;1.90;1.20;;;;;;;13.97;51.06;100387.28;4902492;28;122181;-62
2021/05/09 01:53:41;;;;;;;1.25;1.08;;;;;;;13.98;51.24;100386.19;4917165;28;124231;-70
2021/05/09 01:56:08;;;;;;;2.05;1.23;;;;;;;13.99;51.11;100389.72;4902345;28;98376;-62
2021/05/09 01:58:34;;;;;;;1.95;1.40;;;;;;;13.97;50.92;100381.88;4902467;28;126727;-63
2021/05/09 02:01:00;;;;;;;1.45;1.02;;;;;;;13.99;50.83;100379.69;4900284;28;122299;-70
2021/05/09 02:03:26;;;;;;;1.60;1.23;;;;;;;13.99;50.79;100382.41;4904113;28;100516;-70
2021/05/09 02:05:52;;;;;;;2.53;1.40;;;;;;;13.95;50.65;100384.09;4903221;28;127078;-70
2021/05/09 02:08:18;;;;;;;1.75;1.17;;;;;;;13.96;50.81;100380.25;4902359;28;127506;-62
2021/05/09 02:10:44;;;;;;;2.28;1.30;;;;;;;13.96;50.97;100382.19;4903121;28;98162;-62
2021/05/09 02:13:10;;;;;;;2.20;1.30;;;;;;;13.93;50.70;100369.19;4903151;28;109837;-62
2021/05/09 02:15:36;;;;;;;1.50;1.20;;;;;;;13.92;50.78;100373.81;4884191;28;128355;-62
2021/05/09 02:18:02;;;;;;;1.75;1.05;;;;;;;13.89;51.35;100371.69;4902002;28;128164;-70
2021/05/09 02:20:28;;;;;;;1.55;1.15;;;;;;;13.89;51.42;100371.69;4902680;28;107388;-69
2021/05/09 02:22:54;;;;;;;1.90;1.20;;;;;;;13.87;51.45;100370.34;4903038;28;116309;-70
2021/05/09 02:25:20;;;;;;;1.70;1.10;;;;;;;13.83;51.82;100372.84;4902131;28;127904;-62
2021/05/09 02:27:46;;;;;;;1.95;1.20;;;;;;;13.83;51.70;100364.72;4901082;28;122092;-70
2021/05/09 02:30:13;;;;;;;1.90;1.20;;;;;;;13.80;51.73;100362.59;4903786;28;97970;-62
2021/05/09 02:32:39;;;;;;;2.63;1.30;;;;;;;13.78;51.89;100362.06;4903190;28;99257;-70
2021/05/09 02:35:05;;;;;;;1.90;1.10;;;;;;;13.76;51.88;100364.28;4903459;28;98986;-70
2021/05/09 02:37:31;;;;;;;1.75;1.15;;;;;;;13.75;52.11;100360.78;4902472;28;98355;-62
2021/05/09 02:39:57;;;;;;;1.95;1.10;;;;;;;13.71;52.21;100357.00;4901150;28;100477;-62
2021/05/09 02:42:23;;;;;;;1.50;1.00;;;;;;;13.75;52.27;100359.94;4901302;28;128621;-70
2021/05/09 02:44:50;;;;;;;2.45;0.90;;;;;;;13.82;52.48;100354.19;4902650;28;99170;-70
2021/05/09 02:47:28;;;;;;;2.17;1.20;;;;;;;13.84;52.21;100358.22;4901786;28;117692;-70
2021/05/09 02:49:58;;;;;;;2.45;1.17;;;;;;;13.85;52.07;100357.09;4903276;28;97905;-62
2021/05/09 02:52:24;;;;;;;1.40;0.90;;;;;;;13.89;51.90;100350.00;4900081;28;98436;-70
2021/05/09 02:54:50;;;;;;;1.77;1.10;;;;;;;13.92;52.16;100351.34;4884812;28;103756;-62
2021/05/09 02:57:17;;;;;;;1.58;0.95;;;;;;;13.91;51.96;100355.13;4900595;28;98501;-70
2021/05/09 02:59:43;;;;;;;1.88;1.30;;;;;;;13.89;52.09;100350.00;4902934;28;97719;-62
2021/05/09 03:02:09;;;;;;;2.00;1.20;;;;;;;13.87;52.31;100352.22;4883744;28;98422;-65
2021/05/09 03:04:35;;;;;;;1.83;1.20;;;;;;;13.86;52.25;100352.50;4916519;28;101789;-62
2021/05/09 03:07:01;;;;;;;2.20;1.17;;;;;;;13.86;51.90;100353.28;4901836;28;112399;-70
2021/05/09 03:09:27;;;;;;;1.40;1.00;;;;;;;13.86;52.20;100357.91;4900245;28;123274;-70
2021/05/09 03:11:53;;;;;;;1.80;1.02;;;;;;;13.85;52.09;100362.53;4900465;28;98684;-62
2021/05/09 03:14:20;;;;;;;2.50;1.00;;;;;;;13.83;52.15;100353.06;4902399;28;99169;-63
2021/05/09 03:16:46;;;;;;;1.73;1.23;;;;;;;13.84;52.30;100358.22;4901813;28;104436;-63
2021/05/09 03:19:12;;;;;;;1.73;1.17;;;;;;;13.82;52.09;100354.19;4904067;28;98003;-70
2021/05/09 03:21:40;;;;;;;2.35;1.30;;;;;;;13.79;52.04;100358.25;4901875;28;123218;-62
2021/05/09 03:24:08;;;;;;;1.67;1.15;;;;;;;13.81;51.86;100358.78;4901944;28;99134;-69
2021/05/09 03:26:34;;;;;;;2.40;1.17;;;;;;;13.78;52.05;100353.94;4900517;28;97906;-70
2021/05/09 03:29:00;;;;;;;1.20;0.80;;;;;;;13.82;51.90;100365.00;4902574;28;106647;-62
2021/05/09 03:31:26;;;;;;;2.08;1.15;;;;;;;13.80;52.15;100365.31;4901197;28;111288;-70
2021/05/09 03:33:52;;;;;;;2.05;1.15;;;;;;;13.81;52.18;100366.13;4901057;28;119067;-70
2021/05/09 03:36:18;;;;;;;1.85;1.35;;;;;;;13.80;52.06;100368.03;4900216;28;127486;-62
2021/05/09 03:38:44;;;;;;;1.85;1.20;;;;;;;13.78;52.27;100367.50;4900193;28;97847;-70
2021/05/09 03:41:10;;;;;;;2.45;1.13;;;;;;;13.77;52.25;100365.09;4894740;28;128184;-63
2021/05/09 03:43:36;;;;;;;1.95;1.00;;;;;;;13.75;52.17;100366.19;4889462;28;98509;-70
2021/05/09 03:46:02;;;;;;;2.13;1.15;;;;;;;13.81;52.04;100374.25;4901516;28;99034;-70
2021/05/09 03:48:28;;;;;;;1.98;1.10;;;;;;;13.79;52.31;100373.72;4901555;28;121894;-62
2021/05/09 03:50:54;;;;;;;1.83;1.20;;;;;;;13.77;52.20;100365.88;4899420;28;127330;-62
2021/05/09 03:53:20;;;;;;;1.55;1.05;;;;;;;13.80;52.10;100367.22;4900595;28;128155;-62
2021/05/09 03:55:46;;;;;;;2.45;1.13;;;;;;;13.78;51.91;100377.53;4901111;28;98106;-70
2021/05/09 03:58:12;;;;;;;2.03;1.08;;;;;;;13.81;52.10;100368.81;4900977;28;124253;-62
2021/05/09 04:00:38;;;;;;;1.40;1.13;;;;;;;13.86;51.77;100374.16;4899439;28;129177;-70
2021/05/09 04:03:28;;;;;;;2.08;1.10;;;;;;;13.86;51.84;100366.84;4900812;28;128167;-62
2021/05/09 04:05:54;;;;;;;1.80;1.30;;;;;;;13.89;51.61;100358.13;4881377;28;98300;-63
2021/05/09 04:08:22;;;;;;;1.73;1.08;;;;;;;13.93;51.84;100363.78;4896811;28;98390;-62
2021/05/09 04:10:49;;;;;;;2.38;1.05;;;;;;;13.93;51.39;100364.59;4916044;28;98228;-70
2021/05/09 04:13:15;;;;;;;1.80;1.10;;;;;;;13.98;51.29;100369.13;4901490;28;104873;-70
2021/05/09 04:15:41;;;;;;;2.22;1.10;;;;;;;13.99;51.35;100368.03;4898937;28;127393;-70
2021/05/09 04:18:07;;;;;;;2.47;1.23;;;;;;;14.04;51.37;100362.53;4902239;28;97866;-65
2021/05/09 04:20:33;;;;;;;1.70;1.20;;;;;;;14.02;51.18;100364.72;4900362;28;115816;-70
2021/05/09 04:23:20;;;;;;;1.80;1.20;;;;;;;14.07;51.31;100358.44;4901232;28;111193;-63
2021/05/09 04:25:50;;;;;;;1.80;1.05;;;;;;;14.09;51.25;100357.03;4900511;28;98447;-63
2021/05/09 04:28:17;;;;;;;1.83;1.10;;;;;;;14.14;51.46;100351.53;4901115;28;106384;-70
2021/05/09 04:30:43;;;;;;;2.70;1.30;;;;;;;14.18;51.35;100363.41;4901402;28;98382;-63
2021/05/09 04:33:09;;;;;;;2.00;1.17;;;;;;;14.21;51.61;100364.75;4882637;28;128433;-70
2021/05/09 04:35:36;;;;;;;1.55;1.00;;;;;;;14.24;51.54;100356.81;4900019;28;126896;-70
2021/05/09 04:38:03;;;;;;;2.10;1.17;;;;;;;14.27;51.56;100352.72;4883708;28;97903;-63
2021/05/09 04:40:30;;;;;;;2.88;1.25;;;;;;;14.35;51.11;100359.38;4901009;28;108624;-63
2021/05/09 04:43:06;;;;;;;1.80;1.10;;;;;;;14.38;51.19;100362.31;4897785;28;106404;-63
2021/05/09 04:45:32;;;;;;;1.65;1.10;;;;;;;14.44;51.01;100353.00;4882354;28;98191;-71
2021/05/09 04:47:58;;;;;;;2.10;1.42;;;;;;;14.54;50.97;100356.66;4894229;28;108996;-71
2021/05/09 04:50:24;;;;;;;1.65;1.30;;;;;;;14.61;50.77;100357.09;4884660;28;98486;-70
2021/05/09 04:52:50;;;;;;;2.08;1.20;;;;;;;14.65;50.85;100358.91;4886320;28;127997;-63
2021/05/09 04:55:16;;;;;;;2.58;1.30;;;;;;;14.73;50.79;100366.38;4884787;28;109724;-69
2021/05/09 04:57:42;;;;;;;3.17;1.23;;;;;;;14.82;50.98;100352.16;4901669;28;98024;-71
2021/05/09 05:00:09;;;;;;;2.05;1.10;;;;;;;14.87;50.61;100365.63;4883022;28;128207;-70
2021/05/09 05:02:35;;;;;;;2.70;1.58;;;;;;;14.93;50.67;100356.25;4891251;28;98154;-63
2021/05/09 05:05:01;;;;;;;2.60;1.40;;;;;;;15.03;50.90;100358.81;4892907;28;126770;-71
2021/05/09 05:07:27;;;;;;;2.17;1.20;;;;;;;15.17;50.65;100350.69;4900242;28;98108;-71
2021/05/09 05:09:53;;;;;;;2.03;1.40;;;;;;;15.26;50.47;100348.06;4890644;28;127365;-71
2021/05/09 05:12:19;;;;;;;3.05;1.20;;;;;;;15.43;50.47;100349.06;4870330;28;113717;-66
2021/05/09 05:14:45;;;;;;;1.90;1.00;;;;;;;15.62;50.34;100348.97;4889683;28;127581;-71
2021/05/09 05:17:11;;;;;;;1.88;1.13;;;;;;;15.71;49.78;100338.22;4888735;28;122426;-63
2021/05/09 05:19:37;;;;;;;1.60;1.40;;;;;;;15.87;49.64;100341.41;4885861;28;127164;-63
2021/05/09 05:22:04;;;;;;;4.30;1.10;;;;;;;15.89;50.24;100344.63;4889572;28;128110;-63
2021/05/09 05:24:31;;;;;;;2.00;1.05;;;;;;;15.95;50.19;100340.66;4893942;28;98759;-71
2021/05/09 05:26:57;;;;;;;1.50;1.10;;;;;;;16.00;50.33;100347.94;4893543;28;97853;-71
2021/05/09 05:29:23;;;;;;;1.60;1.10;;;;;;;16.18;50.20;100353.19;4897307;28;98852;-63
2021/05/09 05:31:50;;;;;;;1.92;1.10;;;;;;;16.34;50.09;100361.78;4891849;28;128663;-69
2021/05/09 05:34:17;;;;;;;1.80;1.10;;;;;;;16.57;49.30;100354.44;4899591;28;98984;-71
2021/05/09 05:36:44;;;;;;;1.90;1.02;;;;;;;16.72;47.86;100357.91;4889210;28;98245;-71
2021/05/09 05:39:10;;;;;;;2.53;1.13;;;;;;;16.81;47.80;100356.88;4889690;28;98658;-71
2021/05/09 05:41:36;;;;;;;1.90;1.05;;;;;;;17.03;47.41;100352.50;4892181;28;99287;-71
2021/05/09 05:44:02;;;;;;;2.55;1.20;;;;;;;17.15;47.90;100356.25;4894778;28;110664;-63
2021/05/09 05:46:29;;;;;;;1.60;1.00;;;;;;;17.40;46.45;100364.84;4891523;28;97894;-71
2021/05/09 05:48:56;;;;;;;2.30;0.98;;;;;;;17.72;46.10;100365.56;4893914;28;98780;-71
2021/05/09 05:51:22;;;;;;;2.40;1.02;;;;;;;18.25;44.47;100367.28;4895475;28;110842;-71
2021/05/09 05:53:48;;;;;;;1.88;1.02;;;;;;;18.67;43.69;100370.28;4887613;28;107304;-64
2021/05/09 05:56:14;;;;;;;1.88;1.00;;;;;;;19.16;42.90;100373.56;4889177;28;117726;-66
2021/05/09 05:58:40;;;;;;;2.65;1.20;;;;;;;19.48;42.50;100364.75;4892451;28;98430;-64
2021/05/09 06:01:06;;;;;;;2.58;1.10;;;;;;;19.61;42.01;100362.94;4881599;28;98062;-71
2021/05/09 06:03:33;;;;;;;1.80;0.98;;;;;;;19.84;41.25;100366.97;4890801;28;97864;-63
2021/05/09 06:05:59;;;;;;;2.38;1.00;;;;;;;20.02;41.94;100361.41;4890609;28;98388;-71
2021/05/09 06:08:25;;;;;;;1.85;1.23;;;;;;;20.26;42.46;100372.47;4889878;28;98455;-71
2021/05/09 06:10:51;;;;;;;1.98;1.27;;;;;;;20.80;39.47;100369.75;4885998;28;97867;-64
2021/05/09 06:13:21;;;;;;;2.92;1.10;;;;;;;21.35;40.22;100366.91;4863120;28;99607;-71
2021/05/09 06:15:47;;;;;;;2.42;1.40;;;;;;;21.84;39.04;100366.88;4891994;28;98784;-64
2021/05/09 06:18:13;;;;;;;2.33;1.23;;;;;;;22.21;37.37;100367.63;4891657;28;98395;-71
2021/05/09 06:20:39;;;;;;;1.60;1.10;;;;;;;22.36;38.75;100374.31;4887985;28;127846;-64
2021/05/09 06:23:05;;;;;;;1.58;0.95;;;;;;;22.67;37.49;100370.84;4885431;28;104480;-71
2021/05/09 06:25:32;;;;;;;1.58;1.20;;;;;;;23.37;35.87;100360.13;4879683;28;117656;-71
2021/05/09 06:27:58;;;;;;;2.33;1.23;;;;;;;23.93;35.12;100372.81;4895175;28;98334;-72
2021/05/09 06:30:25;;;;;;;1.42;0.90;;;;;;;24.49;34.82;100380.72;4901703;28;115341;-65
2021/05/09 06:32:52;;;;;;;1.80;1.08;;;;;;;25.09;33.96;100370.06;4891007;28;127958;-71
2021/05/09 06:35:18;;;;;;;1.73;1.30;;;;;;;25.82;32.73;100368.09;4887710;28;98277;-71
2021/05/09 06:37:44;;;;;;;1.63;0.93;;;;;;;26.00;32.91;100376.59;4871475;28;98256;-72
2021/05/09 06:40:11;;;;;;;2.47;1.00;;;;;;;25.69;34.13;100377.69;4894449;28;98959;-72
2021/05/09 06:42:37;;;;;;;2.58;0.77;;;;;;;25.68;34.26;100376.13;4889103;28;98778;-64
2021/05/09 06:45:10;;;;;;;1.63;0.88;;;;;;;25.45;35.29;100382.47;4892488;28;99303;-72
2021/05/09 06:47:37;;;;;;;1.85;1.10;;;;;;;25.67;34.62;100369.81;4892507;28;99696;-64
2021/05/09 06:50:03;;;;;;;1.60;0.88;;;;;;;26.60;33.04;100371.03;4888703;28;98570;-71
2021/05/09 06:52:29;;;;;;;1.90;1.02;;;;;;;27.50;31.88;100367.13;4886609;28;98621;-64
2021/05/09 06:54:55;;;;;;;1.45;0.80;;;;;;;28.10;31.17;100379.81;4891418;28;121510;-71
2021/05/09 06:57:21;;;;;;;1.67;0.80;;;;;;;28.39;31.13;100372.44;4910345;28;98616;-71
2021/05/09 06:59:47;;;;;;;1.65;1.00;;;;;;;28.93;30.51;100365.03;4890879;28;124799;-71
2021/05/09 07:02:13;;;;;;;1.40;1.00;;;;;;;29.26;30.58;100363.88;4898128;28;97985;-71
2021/05/09 07:04:39;;;;;;;2.00;1.00;;;;;;;29.74;29.41;100360.66;4886818;28;122655;-71
2021/05/09 07:07:05;;;;;;;1.40;1.00;;;;;;;30.29;29.26;100356.53;4885067;28;128097;-72
2021/05/09 07:09:31;;;;;;;1.17;1.00;;;;;;;30.73;27.73;100363.44;4890245;28;126257;-64
2021/05/09 07:11:57;;;;;;;1.30;0.80;;;;;;;31.15;27.92;100376.28;4891769;28;98218;-72
2021/05/09 07:14:23;;;;;;;1.20;0.77;;;;;;;31.45;27.40;100363.75;4891943;28;98100;-64
2021/05/09 07:16:49;;;;;;;1.88;0.77;;;;;;;31.86;27.01;100358.16;4886735;28;116343;-71
2021/05/09 07:19:17;;;;;;;1.75;0.90;;;;;;;32.26;26.55;100361.25;4888710;28;99099;-64
2021/05/09 07:21:49;;;;;;;1.50;0.85;;;;;;;32.58;25.82;100355.28;4888467;28;98120;-64
2021/05/09 07:24:16;;;;;;;1.42;0.90;;;;;;;32.75;25.55;100353.44;4891615;28;98181;-64
2021/05/09 07:26:43;;;;;;;1.30;0.90;;;;;;;33.02;25.28;100352.66;4886873;28;98946;-72
2021/05/09 07:29:09;;;;;;;3.20;0.95;;;;;;;33.19;25.05;100343.97;4887315;28;98532;-71
2021/05/09 07:31:40;;;;;;;1.83;0.73;;;;;;;33.47;24.56;100347.50;4890198;28;128106;-64
2021/05/09 07:34:07;;;;;;;;;;;;;;;34.35;24.26;100343.38;4895011;28;97865;-72
2021/05/09 07:36:33;;;;;;;1.20;0.80;;;;;;;34.18;24.76;100342.53;4887507;28;99138;-64
2021/05/09 07:38:59;;;;;;;1.83;0.90;;;;;;;34.57;24.58;100338.13;4891133;28;98303;-72
2021/05/09 07:41:25;;;;;;;1.10;0.73;;;;;;;34.84;23.54;100337.88;4885811;28;128785;-71
2021/05/09 07:43:51;;;;;;;1.60;0.80;;;;;;;34.95;23.89;100343.22;4887198;28;98043;-62
2021/05/09 07:46:17;;;;;;;1.70;0.70;;;;;;;35.32;23.79;100336.31;4889850;28;99498;-62
2021/05/09 07:48:43;;;;;;;1.90;0.90;;;;;;;35.96;22.99;100328.16;4886774;28;127864;-62
2021/05/09 07:51:09;;;;;;;1.40;0.70;;;;;;;36.17;22.75;100324.75;4876182;28;127199;-70
2021/05/09 07:53:35;;;;;;;1.50;1.00;;;;;;;36.75;22.40;100318.97;4896181;28;101296;-70
2021/05/09 07:56:01;;;;;;;2.10;0.80;;;;;;;37.56;21.92;100325.06;4887060;28;121210;-70
2021/05/09 07:58:27;;;;;;;2.15;0.88;;;;;;;38.14;20.95;100327.38;4889137;28;99182;-63
2021/05/09 08:00:53;;;;;;;1.13;0.70;;;;;;;38.38;21.27;100310.78;4890073;28;126029;-70
2021/05/09 08:03:20;;;;;;;1.30;0.90;;;;;;;38.12;21.57;100303.75;4888201;28;122846;-62
2021/05/09 08:05:46;;;;;;;1.50;0.80;;;;;;;38.80;20.64;100293.44;4896401;28;98715;-70
2021/05/09 08:08:12;;;;;;;1.77;0.70;;;;;;;39.38;20.22;100291.75;4888535;28;102613;-70
2021/05/09 08:10:41;;;;;;;1.05;0.63;;;;;;;40.15;18.79;100297.94;4889692;28;99017;-63
2021/05/09 08:13:10;;;;;;;1.20;0.80;;;;;;;40.78;18.03;100292.47;4896902;28;98106;-63
2021/05/09 08:15:36;;;;;;;1.30;0.70;;;;;;;41.48;17.75;100299.84;4894303;28;98282;-70
2021/05/09 08:18:02;;;;;;;1.63;0.80;;;;;;;42.08;16.55;100285.22;4894813;28;98517;-71
2021/05/09 08:20:28;;;;;;;2.22;1.00;;;;;;;42.50;16.17;100289.75;4896696;28;100097;-63
2021/05/09 08:22:54;;;;;;;1.88;1.02;;;;;;;42.08;16.50;100268.25;4896722;28;102782;-71
2021/05/09 08:25:20;;;;;;;1.25;0.80;;;;;;;42.73;15.79;100267.44;4896078;28;129225;-63
2021/05/09 08:27:47;;;;;;;2.10;0.80;;;;;;;43.27;15.33;100259.34;4897171;28;99037;-70
2021/05/09 08:30:15;;;;;;;1.42;0.73;;;;;;;43.93;15.36;100260.53;4883773;28;99669;-63
2021/05/09 08:32:41;;;;;;;1.42;0.93;;;;;;;44.19;15.27;100257.63;4891650;28;118772;-64
2021/05/09 08:35:10;;;;;;;1.52;0.80;;;;;;;44.41;15.49;100262.66;4893431;28;108217;-64
2021/05/09 08:37:37;;;;;;;2.47;0.80;;;;;;;44.76;15.30;100260.28;4885805;28;98635;-71
2021/05/09 08:40:05;;;;;;;2.17;0.90;;;;;;;45.28;14.71;100259.97;4891282;28;98407;-71
2021/05/09 08:42:31;;;;;;;1.73;0.80;;;;;;;45.94;14.40;100256.94;4893316;28;97915;-71
2021/05/09 08:44:57;;;;;;;1.30;0.90;;;;;;;45.84;14.51;100256.47;4891773;28;128110;-71
2021/05/09 08:47:36;;;;;;;0.98;0.80;;;;;;;46.26;14.45;100244.00;4893109;28;99044;-64
2021/05/09 08:50:14;;;;;;;1.75;0.65;;;;;;;46.79;14.04;100234.78;4898130;28;98090;-64
2021/05/09 08:52:41;;;;;;;1.20;0.60;;;;;;;47.07;14.07;100249.66;4880420;28;97949;-64
2021/05/09 08:55:09;;;;;;;1.00;0.70;;;;;;;47.44;13.26;100240.66;4895838;28;120178;-72
2021/05/09 08:57:35;;;;;;;2.22;0.80;;;;;;;47.58;13.36;100244.41;4895228;28;98261;-64
2021/05/09 09:00:06;;;;;;;0.80;0.68;;;;;;;47.48;13.98;100223.25;4894597;28;98217;-64
2021/05/09 09:02:32;;;;;;;1.13;0.70;;;;;;;47.81;13.39;100213.63;4895100;28;98250;-64
2021/05/09 09:04:58;;;;;;;1.75;0.80;;;;;;;47.75;13.48;100223.56;4879136;28;109494;-67
2021/05/09 09:07:24;;;;;;;1.20;0.60;;;;;;;47.91;13.46;100214.84;4878283;28;117629;-72
2021/05/09 09:09:52;;;;;;;1.33;0.70;;;;;;;47.87;13.63;100216.41;4891059;28;125923;-71
2021/05/09 09:12:18;;;;;;;0.77;0.60;;;;;;;47.34;14.33;100210.91;4890880;28;98076;-72
2021/05/09 09:14:59;;;;;;;1.00;0.70;;;;;;;46.43;15.17;100204.06;4893069;28;98501;-72
2021/05/09 09:17:25;;;;;;;1.52;0.50;;;;;;;46.18;15.22;100205.16;4896172;28;98443;-65
2021/05/09 09:20:18;;;;;;;0.77;0.60;;;;;;;46.32;15.36;100206.97;4888975;28;98376;-72
2021/05/09 09:23:03;;;;;;;0.93;0.60;;;;;;;43.68;12.60;100180.63;4897084;28;97805;-73
2021/05/09 09:25:34;;;;;;;4.57;0.80;;;;;;;41.64;12.29;100183.44;4893597;28;98610;-64
2021/05/09 09:28:00;;;;;;;1.48;0.80;;;;;;;41.02;12.27;100170.25;4896477;28;99076;-71
2021/05/09 09:30:28;;;;;;;2.33;0.80;;;;;;;41.13;11.94;100185.34;4888688;28;117910;-71
2021/05/09 09:33:14;;;;;;;1.60;0.60;;;;;;;41.56;11.31;100179.47;4896677;28;98392;-72
2021/05/09 09:35:45;;;;;;;5.28;0.90;;;;;;;40.63;13.15;100185.13;4895665;28;98494;-63
2021/05/09 09:38:28;;;;;;;3.13;0.80;;;;;;;41.31;13.48;100180.81;4891830;28;99201;-68
2021/05/09 09:41:15;;;;;;;2.13;0.80;;;;;;;40.84;14.28;100179.66;4892932;28;98163;-72
2021/05/09 09:44:03;;;;;;;2.05;0.52;;;;;;;40.92;15.03;100172.34;4889983;28;98251;-64
2021/05/09 09:46:37;;;;;;;1.13;0.80;;;;;;;41.48;13.74;100175.47;4890717;28;108389;-70
2021/05/09 09:49:24;;;;;;;1.45;0.70;;;;;;;41.25;13.54;100169.38;4886254;28;98662;-63
2021/05/09 09:51:57;;;;;;;1.27;0.65;;;;;;;40.66;13.86;100167.22;4895235;28;98084;-63
2021/05/09 09:54:50;;;;;;;1.05;0.75;;;;;;;40.96;14.01;100162.41;4898060;28;98009;-63
2021/05/09 09:57:22;;;;;;;2.33;0.60;;;;;;;41.58;13.35;100162.75;4895724;28;100712;-63
2021/05/09 10:00:14;;;;;;;2.22;0.50;;;;;;;41.78;13.02;100164.88;4900200;28;99277;-63
2021/05/09 10:02:45;;;;;;;1.20;0.60;;;;;;;41.63;12.98;100165.69;4900454;28;98441;-64
2021/05/09 10:05:14;;;;;;;1.92;0.50;;;;;;;41.54;13.25;100153.72;4900410;28;97806;-63
2021/05/09 10:07:40;;;;;;;1.23;0.60;;;;;;;41.68;12.83;100144.44;4898907;28;127350;-72
2021/05/09 10:10:06;;;;;;;0.93;0.60;;;;;;;42.03;12.25;100138.03;4882006;28;99333;-63
2021/05/09 10:12:32;;;;;;;1.13;0.60;;;;;;;40.77;12.88;100129.97;4899207;28;100964;-63
2021/05/09 10:14:58;;;;;;;0.82;0.40;;;;;;;39.13;14.39;100126.66;4898697;28;104690;-63
2021/05/09 10:17:25;;;;;;;1.00;0.40;;;;;;;37.08;15.44;100124.94;4893211;28;117846;-72
2021/05/09 10:19:51;;;;;;;0.98;0.40;;;;;;;37.83;14.81;100111.59;4908938;28;128638;-71
2021/05/09 10:22:28;;;;;;;1.13;0.50;;;;;;;39.84;14.18;100122.53;4881330;28;116724;-63
2021/05/09 10:24:55;;;;;;;1.98;0.43;;;;;;;40.71;13.70;100124.19;4899725;28;98552;-73
2021/05/09 10:27:33;;;;;;;1.02;0.40;;;;;;;41.20;12.94;100122.03;4897522;28;98400;-73
2021/05/09 10:29:59;;;;;;;0.85;0.45;;;;;;;40.09;13.60;100108.00;4897619;28;99937;-73
2021/05/09 10:32:25;;;;;;;1.08;0.40;;;;;;;39.76;13.88;100105.19;4897166;28;98502;-73
2021/05/09 10:34:57;;;;;;;1.50;0.40;;;;;;;38.78;13.92;100105.25;4889932;28;98135;-63
2021/05/09 10:37:42;;;;;;;1.25;0.40;;;;;;;37.57;14.03;100099.81;4894096;28;98222;-72
2021/05/09 10:40:36;;;;;;;1.00;0.50;;;;;;;37.31;14.99;100109.63;4889548;28;98983;-72
2021/05/09 10:43:02;;;;;;;1.15;0.35;;;;;;;37.21;15.17;100097.56;4895010;28;98229;-72
2021/05/09 10:45:34;;;;;;;1.70;0.40;;;;;;;36.81;15.79;100101.00;4891345;28;98134;-63
2021/05/09 10:48:19;;;;;;;1.10;0.40;;;;;;;36.14;16.23;100082.47;4892758;28;98635;-72
2021/05/09 10:51:14;;;;;;;0.85;0.40;;;;;;;35.75;16.31;100094.16;4895391;28;98596;-72
2021/05/09 10:53:41;;;;;;;1.60;0.40;;;;;;;35.39;17.74;100101.63;4893072;28;98751;-72
2021/05/09 10:56:18;;;;;;;1.70;0.55;;;;;;;36.01;16.57;100097.75;4894759;28;98179;-62
2021/05/09 10:58:48;;;;;;;0.80;0.40;;;;;;;35.24;17.59;100091.28;4888611;28;98357;-72
2021/05/09 11:01:32;;;;;;;1.40;0.40;;;;;;;35.31;17.66;100091.88;4892785;28;99430;-62
2021/05/09 11:04:03;;;;;;;0.90;0.40;;;;;;;34.72;17.28;100098.72;4000269;28;10000257;-72
2021/05/09 11:06:29;;;;;;;0.93;0.40;;;;;;;35.28;17.47;100095.56;4896493;28;98616;-72
2021/05/09 11:09:12;;;;;;;1.90;0.50;;;;;;;35.91;16.55;100082.81;4897326;28;98334;-62
2021/05/09 11:11:37;;;;;;;1.35;0.40;;;;;;;36.57;16.45;100089.44;4896517;28;97892;-63
2021/05/09 11:14:05;;;;;;;1.67;0.40;;;;;;;35.85;16.83;100079.03;4898487;28;98301;-72
2021/05/09 11:16:34;;;;;;;0.88;0.40;;;;;;;35.18;17.48;100085.47;4898021;28;98399;-71
2021/05/09 11:19:02;;;;;;;1.13;0.57;;;;;;;35.03;18.04;100073.91;4895620;28;98209;-73
2021/05/09 11:21:32;;;;;;;1.55;0.40;;;;;;;35.35;16.88;100083.34;4891642;28;98046;-72
2021/05/09 11:23:59;;;;;;;0.90;0.50;;;;;;;35.98;16.70;100070.63;4874408;28;98797;-70
2021/05/09 11:26:27;;;;;;;0.80;0.30;;;;;;;35.99;16.09;100069.38;4895795;28;120507;-73